Time;durP1;ratioP1;P1;durP2;ratioP2;P2;SDS_P1;SDS_P2;PMS_P1;PMS_P2;Temp;Humidity;BMP_temperature;BMP_pressure;BME280_temperature;BME280_humidity;BME280_pressure;Samples;Min_cycle;Max_cycle;Signal;HPM_P1;HPM_P2
2021/06/24 00:03:09;;;;;;;0.50;0.50;;;;;;;26.14;50.64;98320.09;127711;1101;115511;-85
2021/06/24 00:09:51;;;;;;;0.40;0.40;;;;;;;26.20;50.45;98316.44;128964;1096;115550;-83
2021/06/24 00:13:18;;;;;;;0.40;0.40;;;;;;;26.22;50.35;98321.55;128954;1095;114636;-85
2021/06/24 00:20:15;;;;;;;0.30;0.30;;;;;;;26.27;50.15;98329.36;128912;1099;115516;-83
2021/06/24 00:53:00;;;;;;;0.40;0.40;;;;;;;26.42;50.36;98308.64;128893;1097;115139;-84
2021/06/24 01:05:45;;;;;;;0.50;0.50;;;;;;;26.23;50.74;98305.77;129778;1098;22586;-84
2021/06/24 01:09:12;;;;;;;0.40;0.40;;;;;;;26.20;51.07;98299.88;128897;1099;115640;-84
2021/06/24 01:16:11;;;;;;;0.30;0.30;;;;;;;26.06;51.57;98315.87;128911;1099;115030;-84
2021/06/24 01:19:38;;;;;;;0.38;0.38;;;;;;;25.98;51.99;98309.66;128958;1098;115651;-85
2021/06/24 01:26:17;;;;;;;0.40;0.40;;;;;;;25.83;52.30;98303.53;128912;1100;115331;-83
2021/06/24 01:32:35;;;;;;;0.40;0.40;;;;;;;25.73;52.86;98309.14;129244;1097;114168;-84
2021/06/24 01:47:12;;;;;;;0.38;0.38;;;;;;;25.41;53.87;98305.55;128674;1100;115458;-87
2021/06/24 01:49:39;;;;;;;0.30;0.30;;;;;;;25.39;53.80;98312.68;129457;1100;22605;-88
2021/06/24 01:52:07;;;;;;;0.33;0.33;;;;;;;25.36;53.91;98308.76;128629;1100;115617;-88
2021/06/24 01:54:33;;;;;;;0.40;0.40;;;;;;;25.32;53.72;98302.50;128625;1099;115845;-88
2021/06/24 01:56:59;;;;;;;0.30;0.30;;;;;;;25.31;53.55;98300.95;128659;1097;115466;-89
2021/06/24 01:59:25;;;;;;;0.48;0.48;;;;;;;25.30;53.28;98299.36;128621;1100;116399;-88
2021/06/24 02:01:51;;;;;;;0.30;0.30;;;;;;;25.32;53.43;98293.45;129494;1100;22591;-88
2021/06/24 02:04:17;;;;;;;0.40;0.40;;;;;;;25.31;53.24;98286.36;128653;1100;115807;-88
2021/06/24 02:06:43;;;;;;;0.43;0.43;;;;;;;25.33;53.05;98292.25;128647;1099;116469;-88
2021/06/24 02:09:09;;;;;;;0.50;0.50;;;;;;;25.36;53.09;98294.20;128635;1100;115605;-87
2021/06/24 02:11:35;;;;;;;0.33;0.33;;;;;;;25.39;52.91;98296.14;127815;1099;116248;-87
2021/06/24 02:14:01;;;;;;;0.40;0.40;;;;;;;25.42;52.76;98296.08;127908;1100;115832;-87
2021/06/24 02:16:27;;;;;;;0.40;0.40;;;;;;;25.45;52.81;98303.53;129405;1100;22896;-87
2021/06/24 02:18:53;;;;;;;0.38;0.38;;;;;;;25.49;52.61;98305.47;128689;1100;116560;-87
2021/06/24 02:21:19;;;;;;;0.40;0.40;;;;;;;25.52;52.85;98307.42;128636;1098;115900;-88
2021/06/24 02:23:45;;;;;;;0.50;0.50;;;;;;;25.54;52.84;98293.98;128694;1100;115850;-88
2021/06/24 02:26:11;;;;;;;0.48;0.48;;;;;;;25.55;52.76;98306.60;128711;1099;116553;-87
2021/06/24 02:28:37;;;;;;;0.50;0.50;;;;;;;25.55;52.83;98301.87;129492;1098;23017;-87
2021/06/24 02:31:04;;;;;;;0.43;0.43;;;;;;;25.55;52.92;98299.11;128691;1100;115864;-87
2021/06/24 02:33:31;;;;;;;0.40;0.40;;;;;;;25.56;52.95;98295.15;128692;1100;115649;-87
2021/06/24 02:35:59;;;;;;;0.40;0.40;;;;;;;25.57;52.87;98284.90;128659;1100;116041;-87
2021/06/24 02:38:25;;;;;;;0.58;0.58;;;;;;;25.59;52.75;98275.03;128246;1100;116054;-87
2021/06/24 02:40:52;;;;;;;0.40;0.40;;;;;;;25.62;52.72;98273.41;129474;1100;22551;-87
2021/06/24 02:43:19;;;;;;;0.40;0.40;;;;;;;25.63;52.30;98275.77;129512;1099;22522;-87
2021/06/24 02:45:45;;;;;;;0.40;0.40;;;;;;;25.66;52.16;98280.47;128669;1099;115121;-87
2021/06/24 02:48:11;;;;;;;0.45;0.45;;;;;;;25.69;52.22;98282.38;128637;1100;116301;-87
2021/06/24 02:50:38;;;;;;;0.40;0.40;;;;;;;25.73;52.10;98270.53;127829;1099;116254;-86
2021/06/24 02:53:04;;;;;;;0.50;0.50;;;;;;;25.75;51.89;98276.42;128690;1098;115855;-86
2021/06/24 02:55:30;;;;;;;0.40;0.40;;;;;;;25.78;51.65;98276.41;129463;1100;22580;-86
2021/06/24 02:58:00;;;;;;;0.40;0.40;;;;;;;25.80;51.71;98267.72;128675;1098;115820;-86
2021/06/24 03:00:27;;;;;;;0.47;0.47;;;;;;;25.84;51.45;98271.20;128676;1099;116524;-86
2021/06/24 03:02:54;;;;;;;0.45;0.45;;;;;;;25.88;51.35;98278.23;127834;1098;115889;-88
2021/06/24 03:05:21;;;;;;;0.50;0.50;;;;;;;25.90;51.13;98275.86;128651;1100;114968;-88
2021/06/24 03:07:48;;;;;;;0.40;0.40;;;;;;;25.93;51.21;98283.28;129492;1100;22540;-88
2021/06/24 03:10:17;;;;;;;0.43;0.43;;;;;;;25.96;51.37;98281.69;128682;1100;115562;-88
2021/06/24 03:12:44;;;;;;;0.43;0.43;;;;;;;25.99;51.29;98291.13;128564;1100;115945;-88
2021/06/24 03:15:11;;;;;;;0.55;0.55;;;;;;;26.02;51.21;98285.56;127877;1099;115747;-88
2021/06/24 03:17:37;;;;;;;0.33;0.33;;;;;;;26.06;51.21;98289.05;127840;1100;115819;-88
2021/06/24 03:20:09;;;;;;;0.50;0.50;;;;;;;26.09;50.99;98288.20;128653;1100;115673;-89
2021/06/24 03:22:38;;;;;;;0.50;0.50;;;;;;;26.12;50.88;98290.13;128627;1100;22657;-89
2021/06/24 03:25:07;;;;;;;0.60;0.60;;;;;;;26.15;50.72;98296.81;128589;1099;114917;-88
2021/06/24 03:27:33;;;;;;;0.45;0.45;;;;;;;26.19;50.79;98301.08;128126;1100;115485;-89
2021/06/24 03:30:00;;;;;;;0.40;0.40;;;;;;;26.20;51.00;98316.44;128651;1098;115659;-89
2021/06/24 03:32:26;;;;;;;0.50;0.50;;;;;;;26.20;50.79;98321.95;127836;1098;116038;-89
2021/06/24 03:34:52;;;;;;;0.30;0.30;;;;;;;26.18;51.40;98310.56;129479;1100;22565;-89
2021/06/24 03:37:18;;;;;;;0.40;0.40;;;;;;;26.19;51.15;98317.64;127828;1100;115168;-89
2021/06/24 03:39:47;;;;;;;0.40;0.40;;;;;;;26.16;51.11;98310.19;128701;1100;115325;-89
2021/06/24 03:45:53;;;;;;;0.60;0.60;;;;;;;26.13;51.84;98316.55;128932;1096;115485;-83
2021/06/24 03:49:18;;;;;;;0.65;0.65;;;;;;;26.11;52.34;98316.17;128946;1097;115250;-84
2021/06/24 03:52:47;;;;;;;0.50;0.50;;;;;;;26.08;52.32;98322.52;128903;1099;115187;-83
2021/06/24 03:56:14;;;;;;;0.38;0.38;;;;;;;26.07;52.53;98329.23;128945;1097;114893;-84
2021/06/24 03:59:41;;;;;;;0.50;0.50;;;;;;;26.04;52.58;98324.54;129774;1097;22650;-83
2021/06/24 04:03:08;;;;;;;0.40;0.40;;;;;;;26.03;52.90;98325.75;128906;1100;115406;-84
2021/06/24 04:06:34;;;;;;;0.80;0.80;;;;;;;26.03;53.11;98316.69;128951;1100;115302;-85
2021/06/24 04:10:01;;;;;;;0.70;0.70;;;;;;;26.03;53.35;98325.75;128924;1100;115067;-84
2021/06/24 04:13:28;;;;;;;0.40;0.40;;;;;;;26.03;53.90;98327.72;128940;1097;115769;-84
2021/06/24 04:16:56;;;;;;;0.50;0.50;;;;;;;26.03;53.92;98320.23;128936;1100;115256;-85
2021/06/24 04:26:51;;;;;;;0.30;0.30;;;;;;;26.13;54.14;98308.28;129590;1099;22576;-85
2021/06/24 04:30:17;;;;;;;0.60;0.60;;;;;;;26.16;54.22;98315.70;129724;1097;22556;-85
2021/06/24 04:33:45;;;;;;;0.70;0.70;;;;;;;26.21;54.25;98311.69;129725;1099;22573;-85
2021/06/24 04:47:49;;;;;;;;;;;;;;;;;;;;;
2021/06/24 04:51:07;;;;;;;0.60;0.60;;;;;;;26.51;54.97;98323.94;128648;1100;115885;-84
2021/06/24 04:54:35;;;;;;;0.50;0.50;;;;;;;26.57;54.73;98319.52;128942;1100;115472;-83
2021/06/24 04:58:01;;;;;;;0.40;0.40;;;;;;;26.65;55.16;98315.45;128927;1099;115155;-83
2021/06/24 05:01:38;;;;;;;0.70;0.70;;;;;;;26.72;54.88;98320.05;128872;1100;115596;-84
2021/06/24 05:11:59;;;;;;;0.70;0.70;;;;;;;26.97;54.55;98325.97;128879;1100;114993;-84
2021/06/24 05:15:27;;;;;;;0.50;0.50;;;;;;;27.05;55.02;98323.88;128883;1098;115975;-84
2021/06/24 05:18:55;;;;;;;0.65;0.65;;;;;;;27.13;54.79;98317.83;128915;1100;115303;-83
2021/06/24 05:22:21;;;;;;;1.08;1.08;;;;;;;27.24;54.66;98319.63;128921;1100;115616;-83
2021/06/24 05:29:17;;;;;;;0.70;0.70;;;;;;;27.44;54.69;98320.44;128637;1100;115429;-83
2021/06/24 05:32:47;;;;;;;0.70;0.70;;;;;;;27.57;54.74;98328.88;129326;1098;22552;-83
2021/06/24 05:46:48;;;;;;;0.50;0.50;;;;;;;28.06;54.09;98312.49;128523;1098;115613;-84
2021/06/24 05:50:32;;;;;;;0.60;0.60;;;;;;;28.18;53.59;98302.75;128803;1098;115372;-83
2021/06/24 05:53:58;;;;;;;0.40;0.40;;;;;;;28.32;52.88;98305.98;127716;1103;115655;-84
2021/06/24 05:57:26;;;;;;;0.60;0.60;;;;;;;28.45;52.61;98302.56;127708;1102;115323;-82
2021/06/24 06:01:06;;;;;;;0.43;0.43;;;;;;;28.58;52.12;98306.23;127810;1100;115710;-83
2021/06/24 06:04:28;;;;;;;0.55;0.55;;;;;;;28.72;51.59;98313.41;128391;1100;115141;-83
2021/06/24 06:08:04;;;;;;;0.55;0.55;;;;;;;28.83;50.22;98325.02;128775;1100;115439;-83
2021/06/24 06:15:04;;;;;;;0.70;0.70;;;;;;;29.08;49.78;98325.22;128413;1098;115730;-84
2021/06/24 06:18:36;;;;;;;0.45;0.45;;;;;;;29.22;49.09;98317.74;128519;1100;115442;-83
2021/06/24 06:22:13;;;;;;;0.58;0.58;;;;;;;29.34;48.85;98322.56;128570;1100;115497;-84
2021/06/24 06:36:25;;;;;;;0.50;0.50;;;;;;;29.83;47.32;98330.79;128802;1100;115674;-82
2021/06/24 06:46:41;;;;;;;0.70;0.70;;;;;;;30.12;46.55;98335.50;127693;1103;117121;-81
2021/06/24 06:50:09;;;;;;;0.60;0.60;;;;;;;30.25;46.14;98347.43;128731;1098;115181;-82
2021/06/24 06:57:08;;;;;;;0.60;0.60;;;;;;;30.48;45.98;98349.13;128410;1099;115408;-84
2021/06/24 07:00:26;;;;;;;;;;;;;;;;;;;;;
2021/06/24 07:04:03;;;;;;;0.50;0.50;;;;;;;30.71;45.47;98359.13;128839;1099;115467;-83
2021/06/24 07:10:59;;;;;;;0.60;0.60;;;;;;;30.95;44.55;98359.58;128807;1098;115648;-83
2021/06/24 07:14:32;;;;;;;0.68;0.68;;;;;;;31.07;43.98;98352.44;128877;1100;115603;-82
2021/06/24 07:21:27;;;;;;;0.58;0.58;;;;;;;31.30;43.92;98352.08;128582;1100;238539;-83
2021/06/24 07:24:56;;;;;;;0.50;0.50;;;;;;;31.43;43.82;98355.59;128844;1100;115556;-83
2021/06/24 07:28:26;;;;;;;0.60;0.60;;;;;;;31.56;43.56;98352.78;128860;1100;115710;-84
2021/06/24 07:31:52;;;;;;;0.60;0.60;;;;;;;31.61;42.62;98349.41;127761;1100;116260;-83
2021/06/24 07:35:21;;;;;;;0.78;0.78;;;;;;;31.68;40.09;98353.95;128615;1100;115388;-83
2021/06/24 07:42:19;;;;;;;0.60;0.60;;;;;;;31.90;38.53;98353.97;128872;1098;115571;-82
2021/06/24 07:45:52;;;;;;;0.60;0.60;;;;;;;32.05;37.95;98357.02;128488;1099;115173;-84
2021/06/24 07:52:39;;;;;;;0.60;0.60;;;;;;;32.26;36.21;98353.41;128861;1099;115927;-83
2021/06/24 08:02:30;;;;;;;;;;;;;;;;;;;;;
2021/06/24 08:06:04;;;;;;;0.70;0.70;;;;;;;32.65;34.53;98337.97;128488;1097;115239;-84
2021/06/24 08:09:32;;;;;;;0.60;0.60;;;;;;;32.74;33.12;98326.09;128660;1100;114726;-85
2021/06/24 08:16:22;;;;;;;0.60;0.60;;;;;;;32.94;33.56;98332.06;128867;1096;115036;-85
2021/06/24 08:22:30;;;;;;;;;;;;;;;;;;;;;
2021/06/24 09:23:30;;;;;;;;;;;;;;;;;;;;;
2021/06/24 09:29:28;;;;;;;0.70;0.70;;;;;;;34.28;30.30;98323.03;129108;1097;114407;-84
2021/06/24 12:36:33;;;;;;;0.98;0.98;;;;;;;39.99;22.27;98215.41;128703;1099;115699;-89
2021/06/24 12:38:59;;;;;;;1.10;1.10;;;;;;;40.12;22.12;98220.53;128667;1100;115075;-89
2021/06/24 12:41:30;;;;;;;1.00;1.00;;;;;;;40.30;22.34;98210.77;128689;1100;116379;-89
2021/06/24 12:44:04;;;;;;;1.08;1.08;;;;;;;40.43;22.16;98215.86;127857;1100;115772;-89
2021/06/24 12:46:36;;;;;;;0.80;0.80;;;;;;;40.37;21.27;98215.13;129216;1100;22577;-89
2021/06/24 12:49:14;;;;;;;0.90;0.90;;;;;;;40.44;21.20;98208.92;127837;1100;115191;-89
2021/06/24 12:51:43;;;;;;;0.88;0.88;;;;;;;40.52;21.26;98204.30;127838;1100;115145;-89
2021/06/24 12:54:20;;;;;;;0.90;0.90;;;;;;;40.58;21.32;98205.06;128749;1099;115348;-89
2021/06/24 12:56:48;;;;;;;1.00;1.00;;;;;;;40.67;20.76;98204.77;128723;1100;115118;-90
2021/06/24 12:59:22;;;;;;;1.05;1.05;;;;;;;40.85;21.33;98194.18;127838;1100;115738;-89
2021/06/24 13:01:50;;;;;;;0.93;0.93;;;;;;;40.99;20.74;98189.50;128674;1098;23490;-89
2021/06/24 13:04:19;;;;;;;1.00;1.00;;;;;;;41.08;20.16;98187.15;127842;1099;115428;-89
2021/06/24 13:06:48;;;;;;;0.83;0.83;;;;;;;41.30;20.73;98185.45;127833;1099;116380;-89
2021/06/24 13:09:16;;;;;;;0.95;0.95;;;;;;;41.48;20.30;98181.26;128062;1098;115571;-88
2021/06/24 13:11:47;;;;;;;0.98;0.98;;;;;;;41.68;20.34;98192.14;128633;1098;115445;-88
2021/06/24 13:14:16;;;;;;;1.05;1.05;;;;;;;41.73;19.67;98193.38;128730;1100;115518;-88
2021/06/24 13:16:48;;;;;;;0.80;0.80;;;;;;;41.59;20.04;98184.00;129528;1100;22553;-89
2021/06/24 13:19:28;;;;;;;1.10;1.10;;;;;;;41.67;19.67;98182.13;128683;1100;115466;-88
2021/06/24 13:22:10;;;;;;;0.93;0.93;;;;;;;41.64;20.11;98178.29;127822;1098;115313;-89
2021/06/24 13:24:44;;;;;;;1.03;1.03;;;;;;;41.94;19.99;98157.75;128696;1100;115363;-88
2021/06/24 13:27:46;;;;;;;0.93;0.93;;;;;;;42.00;20.24;98166.16;128685;1100;115488;-89
2021/06/24 13:30:16;;;;;;;0.95;0.95;;;;;;;42.27;20.14;98164.37;127629;1098;116365;-88
2021/06/24 13:32:49;;;;;;;1.00;1.00;;;;;;;42.51;19.36;98160.73;128132;1100;116077;-88
2021/06/24 13:35:20;;;;;;;1.15;1.15;;;;;;;42.56;19.62;98166.31;127943;1100;115917;-88
2021/06/24 13:37:56;;;;;;;1.10;1.10;;;;;;;42.52;18.83;98157.36;128684;1099;23069;-88
2021/06/24 13:40:28;;;;;;;1.00;1.00;;;;;;;42.53;18.79;98158.15;129580;1100;23166;-88
2021/06/24 13:42:59;;;;;;;0.83;0.83;;;;;;;42.70;19.00;98150.22;128239;1100;115789;-88
2021/06/24 13:45:26;;;;;;;1.00;1.00;;;;;;;42.92;18.94;98154.03;128568;1098;115850;-89
2021/06/24 13:47:52;;;;;;;1.10;1.10;;;;;;;43.10;18.88;98151.22;127842;1098;115851;-88
2021/06/24 13:50:19;;;;;;;1.00;1.00;;;;;;;43.32;18.53;98160.70;128628;1099;115783;-88
2021/06/24 13:52:45;;;;;;;1.05;1.05;;;;;;;43.28;17.98;98166.67;129187;1100;22529;-86
2021/06/24 13:55:11;;;;;;;1.10;1.10;;;;;;;42.68;18.26;98158.47;128702;1100;115470;-86
2021/06/24 13:57:38;;;;;;;1.00;1.00;;;;;;;42.56;17.27;98160.65;128703;1100;115921;-88
2021/06/24 14:00:07;;;;;;;1.05;1.05;;;;;;;42.43;18.18;98163.40;128694;1100;115262;-89
2021/06/24 14:02:34;;;;;;;1.20;1.20;;;;;;;42.56;18.48;98157.82;128483;1100;116249;-86
2021/06/24 14:05:00;;;;;;;1.10;1.10;;;;;;;42.60;18.38;98149.03;128248;1099;116132;-86
2021/06/24 14:07:26;;;;;;;1.30;1.30;;;;;;;42.65;17.88;98146.17;129086;1100;22606;-86
2021/06/24 14:09:52;;;;;;;1.10;1.10;;;;;;;42.78;17.65;98148.30;128705;1100;116168;-86
2021/06/24 14:12:18;;;;;;;1.20;1.20;;;;;;;42.88;18.16;98135.30;128709;1100;116032;-86
2021/06/24 14:14:44;;;;;;;1.13;1.13;;;;;;;43.08;17.92;98141.74;127868;1100;115696;-86
2021/06/24 14:17:10;;;;;;;1.20;1.20;;;;;;;43.04;16.61;98144.09;128691;1100;115982;-88
2021/06/24 14:19:36;;;;;;;1.18;1.18;;;;;;;43.16;16.85;98139.81;129540;1100;23038;-87
2021/06/24 14:22:05;;;;;;;1.20;1.20;;;;;;;43.27;16.41;98139.64;128677;1099;115336;-87
2021/06/24 14:24:36;;;;;;;1.13;1.13;;;;;;;43.39;16.42;98134.56;128652;1100;115482;-87
2021/06/24 14:27:19;;;;;;;1.10;1.10;;;;;;;43.46;16.67;98141.64;128305;1099;115746;-87
2021/06/24 14:29:45;;;;;;;1.10;1.10;;;;;;;43.60;16.89;98137.58;128693;1100;115241;-87
2021/06/24 14:32:11;;;;;;;1.15;1.15;;;;;;;43.62;16.57;98124.36;128687;1098;115684;-87
2021/06/24 14:34:37;;;;;;;1.00;1.00;;;;;;;43.78;16.84;98136.74;129499;1100;22569;-87
2021/06/24 14:37:03;;;;;;;1.18;1.18;;;;;;;43.81;16.20;98115.78;128768;1100;115551;-87
2021/06/24 14:39:30;;;;;;;1.20;1.20;;;;;;;43.98;16.64;98126.86;127777;1098;115820;-87
2021/06/24 14:41:57;;;;;;;1.15;1.15;;;;;;;44.15;16.52;98125.77;128729;1100;116191;-87
2021/06/24 14:44:23;;;;;;;1.10;1.10;;;;;;;44.30;16.70;98123.16;128293;1098;115349;-87
2021/06/24 14:46:49;;;;;;;1.00;1.00;;;;;;;44.35;16.09;98142.15;129559;1100;22522;-87
2021/06/24 14:49:15;;;;;;;1.13;1.13;;;;;;;44.41;16.33;98128.59;128300;1100;115320;-87
2021/06/24 14:51:42;;;;;;;1.20;1.20;;;;;;;44.64;16.47;98117.52;128280;1099;115642;-87
2021/06/24 14:54:10;;;;;;;1.30;1.30;;;;;;;44.85;15.92;98114.77;128684;1100;115710;-87
2021/06/24 14:56:37;;;;;;;1.10;1.10;;;;;;;44.91;16.08;98098.34;128682;1100;116188;-87
2021/06/24 14:59:07;;;;;;;1.08;1.08;;;;;;;44.99;15.70;98107.70;128642;1100;115955;-87
2021/06/24 15:01:33;;;;;;;1.38;1.38;;;;;;;45.09;15.84;98088.14;129469;1100;22545;-87
2021/06/24 15:04:00;;;;;;;1.20;1.20;;;;;;;45.13;15.99;98090.64;128416;1100;115824;-87
2021/06/24 15:06:26;;;;;;;1.00;1.00;;;;;;;45.27;16.18;98083.55;128679;1098;115491;-87
2021/06/24 15:08:52;;;;;;;1.18;1.18;;;;;;;45.50;16.00;98089.45;127911;1099;115656;-87
2021/06/24 15:11:18;;;;;;;1.10;1.10;;;;;;;45.88;16.01;98089.76;128252;1100;116147;-87
2021/06/24 15:13:44;;;;;;;1.20;1.20;;;;;;;46.29;15.23;98082.41;128680;1100;22562;-87
2021/06/24 15:16:11;;;;;;;1.30;1.30;;;;;;;46.58;15.47;98082.37;128698;1100;115583;-87
2021/06/24 15:18:38;;;;;;;1.10;1.10;;;;;;;46.77;14.87;98087.72;128308;1100;115511;-87
2021/06/24 15:21:04;;;;;;;1.10;1.10;;;;;;;47.04;15.09;98091.78;128720;1100;115787;-87
2021/06/24 15:23:30;;;;;;;1.20;1.20;;;;;;;47.21;14.69;98094.11;128627;1100;116108;-87
2021/06/24 15:25:56;;;;;;;1.25;1.25;;;;;;;47.55;14.44;98095.83;128684;1100;115464;-87
2021/06/24 15:28:22;;;;;;;1.30;1.30;;;;;;;47.79;14.32;98095.25;129553;1100;22558;-87
2021/06/24 15:30:48;;;;;;;1.20;1.20;;;;;;;47.92;13.59;98094.30;128663;1100;115249;-87
2021/06/24 15:33:14;;;;;;;1.20;1.20;;;;;;;48.01;13.38;98093.69;128547;1100;115733;-88
2021/06/24 15:35:41;;;;;;;1.30;1.30;;;;;;;48.15;13.42;98088.56;128657;1100;116110;-87
2021/06/24 15:38:09;;;;;;;1.30;1.30;;;;;;;48.40;13.85;98083.69;128673;1097;115207;-87
2021/06/24 15:40:35;;;;;;;1.30;1.30;;;;;;;48.64;13.43;98098.64;129524;1100;22536;-87
2021/06/24 15:43:01;;;;;;;1.40;1.40;;;;;;;48.65;13.22;98103.02;128674;1100;115248;-87
2021/06/24 15:45:28;;;;;;;1.30;1.30;;;;;;;48.41;12.79;98085.22;128686;1100;115621;-87
2021/06/24 15:47:56;;;;;;;1.40;1.40;;;;;;;48.31;13.76;98094.97;128635;1100;116231;-87
2021/06/24 15:50:29;;;;;;;1.40;1.40;;;;;;;48.39;13.78;98087.88;128687;1098;115858;-87
2021/06/24 15:52:56;;;;;;;1.38;1.38;;;;;;;48.56;13.78;98092.97;128612;1100;115507;-87
2021/06/24 15:55:24;;;;;;;1.33;1.33;;;;;;;48.72;12.85;98096.50;129476;1098;22553;-88
2021/06/24 15:57:51;;;;;;;1.40;1.40;;;;;;;48.79;13.02;98090.02;127840;1098;115131;-87
2021/06/24 16:00:20;;;;;;;1.23;1.23;;;;;;;48.71;13.03;98080.70;128673;1100;115913;-87
2021/06/24 16:02:47;;;;;;;1.40;1.40;;;;;;;48.33;13.22;98083.72;128675;1100;116197;-88
2021/06/24 16:05:14;;;;;;;1.35;1.35;;;;;;;48.23;13.36;98085.67;128697;1100;116099;-90
2021/06/24 16:07:45;;;;;;;1.35;1.35;;;;;;;47.91;14.10;98081.34;129494;1100;22877;-88
2021/06/24 16:10:14;;;;;;;1.40;1.40;;;;;;;47.89;14.29;98078.31;127836;1098;115432;-88
2021/06/24 16:12:42;;;;;;;1.30;1.30;;;;;;;47.86;14.61;98070.89;128647;1099;115607;-88
2021/06/24 16:15:10;;;;;;;1.30;1.30;;;;;;;47.62;14.71;98075.09;127799;1100;115748;-87
2021/06/24 16:17:41;;;;;;;1.28;1.28;;;;;;;47.25;14.79;98068.06;128212;1100;115934;-88
2021/06/24 16:20:16;;;;;;;1.30;1.30;;;;;;;46.99;15.50;98058.53;128661;1100;115837;-87
2021/06/24 16:22:44;;;;;;;1.20;1.20;;;;;;;46.69;15.41;98054.30;129489;1100;22568;-88
2021/06/24 16:25:13;;;;;;;1.20;1.20;;;;;;;46.20;15.99;98054.47;128691;1100;114980;-88
2021/06/24 16:27:48;;;;;;;;;;;;;;;45.70;16.52;98045.22;128716;1100;115028;-88
2021/06/24 16:30:23;;;;;;;1.10;1.10;;;;;;;45.26;16.86;98039.39;128788;1100;101380;-87
2021/06/24 16:32:54;;;;;;;1.33;1.33;;;;;;;44.83;16.97;98035.75;127880;1098;115603;-87
2021/06/24 16:35:43;;;;;;;1.10;1.10;;;;;;;44.36;17.89;98023.67;128708;1100;116251;-87
2021/06/24 16:38:29;;;;;;;1.10;1.10;;;;;;;43.95;18.52;98013.70;128691;1100;115859;-87
2021/06/24 16:40:55;;;;;;;1.20;1.20;;;;;;;43.57;18.62;98008.22;128867;1100;115786;-87
2021/06/24 16:43:21;;;;;;;1.20;1.20;;;;;;;43.18;19.38;97995.50;129417;1100;119952;-87
2021/06/24 16:45:47;;;;;;;1.00;1.00;;;;;;;42.79;19.70;97996.13;128630;1100;115403;-87
2021/06/24 16:48:13;;;;;;;1.00;1.00;;;;;;;42.40;20.39;97988.97;128669;1100;115436;-87
2021/06/24 16:50:40;;;;;;;1.05;1.05;;;;;;;42.05;20.92;97995.60;128682;1098;115323;-87
2021/06/24 16:53:07;;;;;;;1.10;1.10;;;;;;;41.75;20.76;97993.64;128693;1100;115887;-89
2021/06/24 16:55:33;;;;;;;1.08;1.08;;;;;;;41.51;21.39;97990.84;129081;1100;23046;-89
2021/06/24 16:58:01;;;;;;;1.08;1.08;;;;;;;41.25;21.98;97999.80;128661;1100;115113;-89
2021/06/24 17:00:27;;;;;;;1.05;1.05;;;;;;;40.96;22.29;98002.09;128651;1100;115579;-89
2021/06/24 17:02:54;;;;;;;1.08;1.08;;;;;;;40.68;22.58;97988.20;128673;1100;115966;-90
2021/06/24 17:05:26;;;;;;;1.10;1.10;;;;;;;40.41;23.29;97987.83;128683;1099;116093;-89
2021/06/24 17:07:52;;;;;;;1.00;1.00;;;;;;;40.20;23.34;97993.05;129423;1100;22570;-89
2021/06/24 17:10:19;;;;;;;1.00;1.00;;;;;;;40.06;23.28;97991.33;128702;1100;115729;-89
2021/06/24 17:12:46;;;;;;;1.00;1.00;;;;;;;39.90;23.82;97992.17;128563;1100;115280;-89
2021/06/24 17:15:15;;;;;;;0.95;0.95;;;;;;;39.72;23.67;97985.05;128252;1100;115903;-89
2021/06/24 17:17:42;;;;;;;1.08;1.08;;;;;;;39.59;24.49;97984.81;128685;1100;116104;-89
2021/06/24 17:20:13;;;;;;;1.00;1.00;;;;;;;39.44;24.72;97977.41;128349;1100;114972;-90
2021/06/24 17:22:39;;;;;;;0.95;0.95;;;;;;;39.33;25.17;97971.80;129517;1099;23397;-89
2021/06/24 17:25:07;;;;;;;1.10;1.10;;;;;;;39.18;25.41;97960.02;128711;1100;115551;-89
2021/06/24 17:27:34;;;;;;;1.00;1.00;;;;;;;39.07;26.27;97969.27;128248;1100;115742;-89
2021/06/24 17:30:00;;;;;;;0.90;0.90;;;;;;;38.96;27.84;97970.04;128275;1100;115638;-89
2021/06/24 17:32:26;;;;;;;0.70;0.70;;;;;;;38.83;28.42;97978.23;128138;1100;115275;-89
2021/06/24 17:34:54;;;;;;;1.00;1.00;;;;;;;38.70;29.19;97972.30;129474;1100;23035;-90
2021/06/24 17:37:20;;;;;;;1.03;1.03;;;;;;;38.51;29.80;97984.05;129465;1099;22592;-89
2021/06/24 17:39:48;;;;;;;0.90;0.90;;;;;;;38.33;30.19;97978.12;128721;1100;115346;-89
2021/06/24 17:42:15;;;;;;;0.78;0.78;;;;;;;38.12;30.49;97983.16;128685;1100;115843;-89
2021/06/24 17:44:45;;;;;;;1.20;1.20;;;;;;;37.91;31.18;97979.77;128319;1100;115387;-90
2021/06/24 17:47:12;;;;;;;1.00;1.00;;;;;;;37.70;31.39;97973.53;128647;1100;116160;-89
2021/06/24 17:49:38;;;;;;;0.80;0.80;;;;;;;37.50;32.54;97971.64;128637;1098;22546;-89
2021/06/24 17:52:05;;;;;;;1.00;1.00;;;;;;;37.30;32.48;97972.52;128589;1100;115650;-89
2021/06/24 17:54:31;;;;;;;0.80;0.80;;;;;;;37.12;33.11;97972.89;127835;1100;115455;-89
2021/06/24 17:56:57;;;;;;;1.00;1.00;;;;;;;36.94;33.09;97976.83;127824;1098;115881;-89
2021/06/24 17:59:24;;;;;;;0.80;0.80;;;;;;;36.73;34.15;97974.09;127801;1100;116048;-89
2021/06/24 18:01:50;;;;;;;1.00;1.00;;;;;;;36.50;34.25;97963.92;129486;1100;22566;-89
2021/06/24 18:04:16;;;;;;;0.83;0.83;;;;;;;36.27;34.18;97969.27;128663;1098;115701;-89
2021/06/24 18:06:43;;;;;;;1.00;1.00;;;;;;;36.08;34.35;97956.86;127850;1099;115121;-91
2021/06/24 18:09:10;;;;;;;0.90;0.90;;;;;;;35.91;33.67;97953.81;128662;1100;115040;-90
2021/06/24 18:11:37;;;;;;;0.90;0.90;;;;;;;35.75;33.84;97952.34;127754;1097;115531;-89
2021/06/24 18:14:03;;;;;;;0.80;0.80;;;;;;;35.59;33.58;97956.48;128373;1100;115720;-89
2021/06/24 18:16:29;;;;;;;0.90;0.90;;;;;;;35.46;33.66;97946.86;128719;1100;22640;-89
2021/06/24 18:18:55;;;;;;;0.83;0.83;;;;;;;35.30;33.80;97942.57;128245;1100;115232;-89
2021/06/24 18:21:24;;;;;;;0.85;0.85;;;;;;;35.15;33.65;97931.41;128261;1100;115494;-89
2021/06/24 18:23:50;;;;;;;0.80;0.80;;;;;;;35.00;34.07;97936.27;127851;1100;115300;-89
2021/06/24 18:26:17;;;;;;;0.90;0.90;;;;;;;34.88;34.01;97935.30;128672;1100;115706;-89
2021/06/24 18:28:44;;;;;;;0.73;0.73;;;;;;;34.76;34.00;97942.73;129466;1098;23287;-89
2021/06/24 18:31:14;;;;;;;0.80;0.80;;;;;;;34.63;34.29;97943.04;127881;1100;115517;-89
2021/06/24 18:33:41;;;;;;;0.90;0.90;;;;;;;34.52;34.52;97939.28;128690;1098;116078;-89
2021/06/24 18:36:08;;;;;;;1.00;1.00;;;;;;;34.38;34.62;97941.55;128514;1100;116708;-89
2021/06/24 18:38:39;;;;;;;0.95;0.95;;;;;;;34.26;34.48;97942.59;127832;1100;116618;-89
2021/06/24 18:41:07;;;;;;;0.85;0.85;;;;;;;34.14;35.05;97938.05;128657;1099;115802;-89
2021/06/24 18:43:33;;;;;;;0.80;0.80;;;;;;;34.02;35.00;97936.30;128676;1098;22612;-89
2021/06/24 18:45:59;;;;;;;0.93;0.93;;;;;;;33.89;34.98;97945.69;127875;1100;114787;-89
2021/06/24 18:48:26;;;;;;;0.85;0.85;;;;;;;33.80;34.92;97945.77;127786;1099;115432;-89
2021/06/24 18:50:53;;;;;;;0.80;0.80;;;;;;;33.71;34.51;97948.60;128514;1098;115605;-89
2021/06/24 18:53:19;;;;;;;0.90;0.90;;;;;;;33.63;34.87;97953.77;128183;1100;116417;-89
2021/06/24 18:55:46;;;;;;;0.85;0.85;;;;;;;33.58;34.55;97962.05;128962;1100;22571;-89
2021/06/24 18:58:12;;;;;;;0.80;0.80;;;;;;;33.53;34.62;97979.45;128713;1100;115202;-87
2021/06/24 19:00:40;;;;;;;0.83;0.83;;;;;;;33.44;34.66;97971.85;128283;1098;115829;-89
2021/06/24 19:03:07;;;;;;;0.70;0.70;;;;;;;33.37;34.14;97975.78;127841;1100;115638;-89
2021/06/24 19:05:35;;;;;;;0.88;0.88;;;;;;;33.27;34.38;97974.27;128399;1100;115867;-89
2021/06/24 19:08:03;;;;;;;0.85;0.85;;;;;;;33.19;34.30;97989.81;127796;1098;115752;-88
2021/06/24 19:10:29;;;;;;;0.88;0.88;;;;;;;33.12;34.29;97990.91;128990;1100;22574;-89
2021/06/24 19:12:55;;;;;;;0.90;0.90;;;;;;;33.09;34.10;97991.08;127797;1100;115548;-89
2021/06/24 19:15:21;;;;;;;0.93;0.93;;;;;;;33.03;33.99;97996.54;128332;1100;116240;-89
2021/06/24 19:17:47;;;;;;;0.85;0.85;;;;;;;33.03;33.92;97998.56;127757;1099;115253;-88
2021/06/24 19:20:15;;;;;;;0.70;0.70;;;;;;;32.98;34.26;98000.75;127747;1100;115708;-89